Aérodrome :
LOGIN :

S'inscrire | Disclaimer

   EN    FR    IT 

 










Légende :    VFR   VFR Marginal   IFR   IFR Intensif   IFR Très Intensif
Visi : 
Plafond : 
>= 8 km
>= 3000ft
5 à 8 km
1000 à 3000 ft
1500m à 5 km
500 à 1000 ft
800 à 1500m
200 à 500 ft
< 800m
< 200 ft
Symboles :   Orages  Brouillard  Fortes neiges  Fortes précipitations  Vent > 20 kt
SIGMETs :   Divers  Orages  Givrage  Turbulence  Onde Orograph.  Cendres Volcan.






- Altitude de l'aérodrome : 291 ft
- Code IATA : ORY


LFPO - Paris-Orly

DERNIER METAR :
  • 261000Z VRB02KT CAVOK 07/05 Q1020 NOSIG

METARs EXPIRÉS :
  • 260930Z 00000KT CAVOK 06/04 Q1020 NOSIG
  • 260900Z 00000KT CAVOK 05/05 Q1020 NOSIG
  • 260800Z 00000KT 8000 0450SE R02/P2000 R25/0375N R07/1000U R24/P2000 R06/1400D BCFG NSC 03/03 Q1020 BECMG CAVOK
  • 260730Z VRB02KT 4000 0350SE R02/0300N R25/P2000 R07/1200D R24/P2000 R06/1700U BCFG BR FEW003 01/01 Q1020 TEMPO 0800 FG VV///
  • 260700Z 02001KT 2500 0350S R02/0450D R25/P2000 R07/P2000 R24/P2000 R06/1600U BCFG BR FEW003 01/01 Q1020 TEMPO 0800 FG VV///

TAF TAF LFPO
Valide du 26 à 06h jusqu'au 27 à 12h UTC


260500Z 2606/2712 VRB02KT CAVOK
TEMPO 2606/2610 4000 BR
PROB40
TEMPO 2606/2609 1200 MIFG
PROB30
TEMPO 2606/2609 0200 FG VV///
BECMG 2621/2624 3000 BR
TEMPO 2700/2706 0200 FG VV///
TEMPO 2706/2709 2000 BR BKN003
BECMG 2709/2712 8000 BKN008
ATIS : +33 1 49 75 65 80



MET'MAP, la Météo Aéronautique d'un coup d'oeil ! - Copyright ORBIFLY Décembre 2007 - Disclaimer

ORBIFLY MET'MAP TEAM :

Programmation & Développement : Alexandra Zaïnal
Sur une idée originale de : Baudouin d'Aumeries
Assistance à la programmation : Marc-Olivier Méhu
Soutien technique & logistique : Manuel Goepfert

Contact : metmap@orbifly.com




SOURCES & CREDITS :

   NOAA